createdAt,value
2018-03-04T00:02:33.703Z,93893
2018-03-04T00:05:06.720Z,93880
2018-03-04T00:07:34.852Z,93886
2018-03-04T00:10:03.600Z,93891
2018-03-04T00:12:31.896Z,93887
2018-03-04T00:15:00.035Z,93890
2018-03-04T00:17:30.171Z,93891
2018-03-04T00:19:59.076Z,93892
2018-03-04T00:22:40.872Z,93891
2018-03-04T00:25:09.071Z,93895
2018-03-04T00:37:17.244Z,93903
2018-03-04T00:39:46.253Z,93891
2018-03-04T00:42:14.413Z,93913
2018-03-04T00:44:42.805Z,93896
2018-03-04T00:47:11.949Z,93898
2018-03-04T00:49:41.446Z,93900
2018-03-04T00:52:10.279Z,93896
2018-03-04T00:54:42.784Z,93908
2018-03-04T00:57:11.380Z,93910
2018-03-04T00:59:48.453Z,93921
2018-03-04T01:02:20.877Z,93915
2018-03-04T01:04:50.634Z,93919
2018-03-04T01:07:18.792Z,93912
2018-03-04T01:09:52.974Z,93921
2018-03-04T01:12:22.176Z,93927
2018-03-04T01:24:30.540Z,93931
2018-03-04T01:26:58.712Z,93931
2018-03-04T01:29:32.936Z,93929
2018-03-04T01:32:05.578Z,93935
2018-03-04T01:34:40.992Z,93928
2018-03-04T01:50:05.025Z,93933
2018-03-04T01:52:35.296Z,93938
2018-03-04T02:04:44.375Z,93951
2018-03-04T02:07:12.765Z,93946
2018-03-04T02:09:42.693Z,93959
2018-03-04T02:12:10.855Z,93959
2018-03-04T02:14:44.901Z,93961
2018-03-04T02:17:18.167Z,93964
2018-03-04T02:19:47.300Z,93949
2018-03-04T02:22:18.237Z,93953
2018-03-04T02:24:51.574Z,93958
2018-03-04T02:40:14.705Z,93955
2018-03-04T02:42:44.040Z,93964
2018-03-04T02:45:16.980Z,93959
2018-03-04T02:47:46.731Z,93963
2018-03-04T02:50:21.749Z,93973
2018-03-04T02:52:51.358Z,93964
2018-03-04T03:08:16.230Z,93969
2018-03-04T03:10:48.362Z,93970
2018-03-04T03:13:18.367Z,93973
2018-03-04T03:15:54.370Z,93974
2018-03-04T03:18:28.143Z,93966
2018-03-04T03:23:38.378Z,93969
2018-03-04T03:26:06.540Z,93968
2018-03-04T03:28:36.018Z,93971
2018-03-04T03:44:00.338Z,93965
2018-03-04T03:46:29.625Z,93956
2018-03-04T03:48:58.579Z,93949
2018-03-04T03:51:31.909Z,93953
2018-03-04T03:54:04.700Z,93946
2018-03-04T03:56:39.412Z,93949
2018-03-04T03:59:11.003Z,93956
2018-03-04T04:01:40.775Z,93946
2018-03-04T04:04:11.275Z,93935
2018-03-04T04:06:39.432Z,93940
2018-03-04T04:09:08.368Z,93946
2018-03-04T04:11:37.351Z,93960
2018-03-04T04:14:16.802Z,93950
2018-03-04T04:16:45.536Z,93954
2018-03-04T04:19:18.370Z,93947
2018-03-04T04:34:41.542Z,93940
2018-03-04T04:37:10.814Z,93944
2018-03-04T04:39:43.082Z,93940
2018-03-04T04:42:12.223Z,93941
2018-03-04T04:44:40.457Z,93935
2018-03-04T04:47:08.576Z,93933
2018-03-04T04:49:36.775Z,93923
2018-03-04T04:52:09.252Z,93939
2018-03-04T04:54:37.371Z,93925
2018-03-04T04:57:06.317Z,93931
2018-03-04T04:59:34.457Z,93932
2018-03-04T05:02:02.597Z,93916
2018-03-04T05:04:30.747Z,93936
2018-03-04T05:06:58.860Z,93932
2018-03-04T05:09:27.100Z,93921
2018-03-04T05:11:58.468Z,93921
2018-03-04T05:14:31.398Z,93929
2018-03-04T05:16:59.501Z,93927
2018-03-04T05:19:28.488Z,93928
2018-03-04T05:21:56.656Z,93926
2018-03-04T05:34:04.802Z,93926
2018-03-04T05:36:33.059Z,93924
2018-03-04T05:39:01.284Z,93910
2018-03-04T05:41:31.004Z,93925
2018-03-04T05:44:00.091Z,93927
2018-03-04T05:46:28.785Z,93928
2018-03-04T06:01:52.841Z,93935
2018-03-04T06:04:21.645Z,93940
2018-03-04T06:06:50.538Z,93935
2018-03-04T06:09:18.682Z,93926
2018-03-04T06:11:51.991Z,93920
2018-03-04T06:14:24.647Z,93926
2018-03-04T06:16:53.362Z,93922
2018-03-04T06:19:21.472Z,93946
2018-03-04T06:21:50.475Z,93924
2018-03-04T06:24:18.629Z,93938
2018-03-04T06:42:52.879Z,93937
2018-03-04T06:45:21.015Z,93949
2018-03-04T06:47:49.166Z,93941
2018-03-04T06:50:17.317Z,93946
2018-03-04T06:52:49.154Z,93940
2018-03-04T06:55:17.893Z,93937
2018-03-04T06:57:46.022Z,93941
2018-03-04T07:00:14.888Z,93939
2018-03-04T07:02:43.006Z,93932
2018-03-04T07:05:11.120Z,93933
2018-03-04T07:07:39.226Z,93923
2018-03-04T07:10:07.514Z,93921
2018-03-04T07:12:35.660Z,93926
2018-03-04T07:15:03.770Z,93929
2018-03-04T07:17:31.898Z,93924
2018-03-04T07:20:00.016Z,93933
2018-03-04T07:22:28.396Z,93933
2018-03-04T07:24:56.518Z,93920
2018-03-04T07:27:24.641Z,93937
2018-03-04T07:29:53.202Z,93935
2018-03-04T07:32:22.073Z,93944
2018-03-04T07:34:53.997Z,93934
2018-03-04T07:37:22.197Z,93945
2018-03-04T07:39:50.300Z,93939
2018-03-04T07:42:18.416Z,93948
2018-03-04T07:44:46.532Z,93948
2018-03-04T07:47:16.281Z,93950
2018-03-04T07:49:44.365Z,93945
2018-03-04T07:52:12.471Z,93952
2018-03-04T07:54:40.559Z,93940
2018-03-04T07:57:08.663Z,93939
2018-03-04T07:59:36.868Z,93927
2018-03-04T08:02:05.801Z,93927
2018-03-04T08:04:33.929Z,93923
2018-03-04T08:07:02.062Z,93928
2018-03-04T08:09:30.287Z,93929
2018-03-04T08:11:58.575Z,93920
2018-03-04T08:14:26.781Z,93920
2018-03-04T08:16:55.360Z,93929
2018-03-04T08:19:23.461Z,93914
2018-03-04T08:21:51.638Z,93912
2018-03-04T08:24:38.312Z,93904
2018-03-04T08:27:24.046Z,93903
2018-03-04T08:29:52.154Z,93902
2018-03-04T08:32:20.292Z,93901
2018-03-04T08:34:49.144Z,93898
2018-03-04T08:37:18.012Z,93900
2018-03-04T08:39:46.926Z,93891
2018-03-04T08:42:15.045Z,93896
2018-03-04T08:44:43.231Z,93898
2018-03-04T08:47:11.340Z,93895
2018-03-04T08:49:39.456Z,93886
2018-03-04T08:52:07.650Z,93888
2018-03-04T08:54:35.841Z,93892
2018-03-04T08:57:04.027Z,93890
2018-03-04T08:59:32.341Z,93894
2018-03-04T09:02:00.576Z,93897
2018-03-04T09:04:28.741Z,93893
2018-03-04T09:06:56.861Z,93884
2018-03-04T09:09:24.979Z,93880
2018-03-04T09:11:53.140Z,93887
2018-03-04T09:14:21.275Z,93878
2018-03-04T09:16:50.456Z,93881
2018-03-04T09:19:18.582Z,93873
2018-03-04T09:21:46.700Z,93881
2018-03-04T09:24:15.020Z,93878
2018-03-04T09:26:43.286Z,93866
2018-03-04T09:29:11.527Z,93869
2018-03-04T09:31:39.689Z,93863
2018-03-04T09:34:08.606Z,93862
2018-03-04T09:36:37.225Z,93862
2018-03-04T09:39:05.440Z,93858
2018-03-04T09:41:33.610Z,93860
2018-03-04T09:44:02.560Z,93856
2018-03-04T09:46:30.682Z,93842
2018-03-04T09:48:58.960Z,93843
2018-03-04T09:51:39.372Z,93837
2018-03-04T09:54:07.539Z,93843
2018-03-04T09:56:35.689Z,93851
2018-03-04T09:59:03.825Z,93851
2018-03-04T10:01:32.778Z,93844
2018-03-04T10:04:00.948Z,93847
2018-03-04T10:06:29.116Z,93836
2018-03-04T10:08:57.218Z,93838
2018-03-04T10:11:25.345Z,93842
2018-03-04T10:13:53.625Z,93848
2018-03-04T10:16:21.779Z,93840
2018-03-04T10:18:50.717Z,93837
2018-03-04T10:21:19.051Z,93831
2018-03-04T10:23:47.178Z,93825
2018-03-04T10:26:15.281Z,93813
2018-03-04T10:28:44.290Z,93804
2018-03-04T10:31:12.513Z,93798
2018-03-04T10:33:40.676Z,93798
2018-03-04T10:36:08.794Z,93806
2018-03-04T10:38:36.923Z,93803
2018-03-04T10:41:05.049Z,93809
2018-03-04T10:43:33.199Z,93802
2018-03-04T10:46:01.349Z,93813
2018-03-04T10:48:30.238Z,93811
2018-03-04T10:50:58.369Z,93799
2018-03-04T10:53:26.517Z,93784
2018-03-04T10:55:54.623Z,93789
2018-03-04T10:58:22.796Z,93792
2018-03-04T11:01:10.687Z,93772
2018-03-04T11:03:39.273Z,93769
2018-03-04T11:06:07.394Z,93761
2018-03-04T11:08:35.548Z,93763
2018-03-04T11:11:03.665Z,93769
2018-03-04T11:13:32.040Z,93761
2018-03-04T11:16:00.170Z,93749
2018-03-04T11:18:28.281Z,93752
2018-03-04T11:20:56.390Z,93759
2018-03-04T11:23:24.508Z,93747
2018-03-04T11:25:52.658Z,93741
2018-03-04T11:28:20.774Z,93741
2018-03-04T11:30:48.906Z,93732
2018-03-04T11:33:17.004Z,93736
2018-03-04T11:35:45.133Z,93735
2018-03-04T11:38:13.416Z,93727
2018-03-04T11:40:41.635Z,93730
2018-03-04T11:43:09.783Z,93720
2018-03-04T11:45:38.005Z,93734
2018-03-04T11:48:06.257Z,93730
2018-03-04T11:50:34.425Z,93725
2018-03-04T11:53:02.747Z,93720
2018-03-04T11:55:31.029Z,93724
2018-03-04T11:57:59.240Z,93710
2018-03-04T12:00:27.444Z,93708
2018-03-04T12:02:55.667Z,93716
2018-03-04T12:05:24.547Z,93712
2018-03-04T12:07:52.719Z,93718
2018-03-04T12:10:20.859Z,93705
2018-03-04T12:12:48.961Z,93709
2018-03-04T12:15:17.085Z,93710
2018-03-04T12:17:45.201Z,93705
2018-03-04T12:20:13.315Z,93710
2018-03-04T12:22:41.543Z,93702
2018-03-04T12:25:09.657Z,93703
2018-03-04T12:27:37.800Z,93716
2018-03-04T12:30:06.008Z,93714
2018-03-04T12:32:34.186Z,93707
2018-03-04T12:35:02.365Z,93706
2018-03-04T12:37:30.648Z,93699
2018-03-04T12:39:58.765Z,93693
2018-03-04T12:42:26.897Z,93682
2018-03-04T12:44:55.163Z,93682
2018-03-04T12:47:23.309Z,93678
2018-03-04T12:49:51.523Z,93678
2018-03-04T12:52:19.658Z,93687
2018-03-04T12:54:47.807Z,93665
2018-03-04T12:57:16.115Z,93668
2018-03-04T12:59:46.011Z,93665
2018-03-04T13:02:14.131Z,93672
2018-03-04T13:04:42.408Z,93653
2018-03-04T13:07:11.178Z,93666
2018-03-04T13:09:39.371Z,93655
2018-03-04T13:12:07.844Z,93668
2018-03-04T13:14:36.916Z,93659
2018-03-04T13:17:05.134Z,93655
2018-03-04T13:19:33.252Z,93656
2018-03-04T13:22:01.467Z,93658
2018-03-04T13:24:29.576Z,93656
2018-03-04T13:26:57.700Z,93651
2018-03-04T13:29:25.821Z,93660
2018-03-04T13:31:54.012Z,93652
2018-03-04T13:34:22.964Z,93656
2018-03-04T13:36:51.073Z,93653
2018-03-04T13:39:19.337Z,93647
2018-03-04T13:41:47.490Z,93655
2018-03-04T13:44:15.609Z,93652
2018-03-04T13:46:43.716Z,93655
2018-03-04T13:49:11.855Z,93655
2018-03-04T13:51:39.965Z,93647
2018-03-04T13:54:08.078Z,93640
2018-03-04T13:56:36.973Z,93635
2018-03-04T13:59:05.090Z,93636
2018-03-04T14:01:33.241Z,93645
2018-03-04T14:04:02.650Z,93636
2018-03-04T14:06:31.457Z,93649
2018-03-04T14:08:59.606Z,93641
2018-03-04T14:11:27.706Z,93640
2018-03-04T14:13:55.822Z,93634
2018-03-04T14:16:24.007Z,93632
2018-03-04T14:18:52.095Z,93631
2018-03-04T14:21:20.210Z,93633
2018-03-04T14:23:48.328Z,93632
2018-03-04T14:26:16.483Z,93630
2018-03-04T14:28:44.584Z,93639
2018-03-04T14:31:12.878Z,93628
2018-03-04T14:33:40.981Z,93626
2018-03-04T14:36:09.143Z,93629
2018-03-04T14:38:37.254Z,93628
2018-03-04T14:41:07.828Z,93609
2018-03-04T14:43:35.982Z,93622
2018-03-04T14:46:08.653Z,93621
2018-03-04T14:48:36.711Z,93613
2018-03-04T14:51:05.597Z,93609
2018-03-04T14:53:33.753Z,93610
2018-03-04T14:56:02.567Z,93600
2018-03-04T14:58:31.468Z,93596
2018-03-04T15:01:00.348Z,93590
2018-03-04T15:03:29.255Z,93595
2018-03-04T15:05:57.347Z,93601
2018-03-04T15:08:25.446Z,93595
2018-03-04T15:10:53.583Z,93597
2018-03-04T15:13:25.701Z,93598
2018-03-04T15:15:54.689Z,93593
2018-03-04T15:18:22.830Z,93588
2018-03-04T15:20:50.955Z,93586
2018-03-04T15:23:19.089Z,93583
2018-03-04T15:25:47.235Z,93580
2018-03-04T15:28:15.332Z,93575
2018-03-04T15:30:43.448Z,93574
2018-03-04T15:33:11.586Z,93580
2018-03-04T15:35:39.689Z,93584
2018-03-04T15:38:08.618Z,93580
2018-03-04T15:40:36.721Z,93582
2018-03-04T15:43:05.601Z,93581
2018-03-04T15:45:33.756Z,93574
2018-03-04T15:48:01.999Z,93571
2018-03-04T15:50:30.205Z,93571
2018-03-04T15:52:58.342Z,93566
2018-03-04T15:55:26.482Z,93570
2018-03-04T15:57:54.620Z,93561
2018-03-04T16:00:22.873Z,93562
2018-03-04T16:02:51.747Z,93560
2018-03-04T16:05:19.855Z,93554
2018-03-04T16:07:47.993Z,93565
2018-03-04T16:10:16.110Z,93561
2018-03-04T16:12:44.286Z,93569
2018-03-04T16:15:12.499Z,93564
2018-03-04T16:17:40.815Z,93570
2018-03-04T16:20:09.032Z,93574
2018-03-04T16:22:37.227Z,93580
2018-03-04T16:25:05.803Z,93574
2018-03-04T16:27:33.915Z,93595
2018-03-04T16:30:02.855Z,93597
2018-03-04T16:32:30.952Z,93605
2018-03-04T16:34:59.127Z,93598
2018-03-04T16:37:27.225Z,93592
2018-03-04T16:39:55.327Z,93592
2018-03-04T16:42:23.424Z,93590
2018-03-04T16:44:51.522Z,93587
2018-03-04T16:47:19.679Z,93584
2018-03-04T16:49:47.844Z,93581
2018-03-04T16:52:16.014Z,93584
2018-03-04T16:54:44.257Z,93566
2018-03-04T16:57:12.367Z,93575
2018-03-04T16:59:40.458Z,93578
2018-03-04T17:02:08.589Z,93580
2018-03-04T17:04:36.732Z,93574
2018-03-04T17:07:04.833Z,93565
2018-03-04T17:09:33.079Z,93566
2018-03-04T17:12:01.209Z,93573
2018-03-04T17:14:29.480Z,93583
2018-03-04T17:16:57.760Z,93582
2018-03-04T17:19:26.742Z,93569
2018-03-04T17:21:54.850Z,93569
2018-03-04T17:24:23.122Z,93566
2018-03-04T17:26:51.235Z,93565
2018-03-04T17:29:19.346Z,93571
2018-03-04T17:31:47.437Z,93563
2018-03-04T17:34:16.303Z,93571
2018-03-04T17:36:45.062Z,93560
2018-03-04T17:39:13.173Z,93562
2018-03-04T17:41:41.269Z,93557
2018-03-04T17:44:09.437Z,93568
2018-03-04T17:46:37.681Z,93562
2018-03-04T17:49:05.920Z,93570
2018-03-04T17:51:34.141Z,93565
2018-03-04T17:54:02.344Z,93577
2018-03-04T17:56:31.206Z,93578
2018-03-04T17:58:59.293Z,93574
2018-03-04T18:01:27.412Z,93564
2018-03-04T18:03:55.517Z,93569
2018-03-04T18:06:23.708Z,93558
2018-03-04T18:08:51.822Z,93551
2018-03-04T18:11:19.944Z,93543
2018-03-04T18:13:48.044Z,93534
2018-03-04T18:16:16.165Z,93544
2018-03-04T18:18:45.037Z,93545
2018-03-04T18:21:13.826Z,93543
2018-03-04T18:23:41.912Z,93541
2018-03-04T18:26:10.009Z,93539
2018-03-04T18:28:38.105Z,93535
2018-03-04T18:31:06.262Z,93527
2018-03-04T18:33:34.420Z,93529
2018-03-04T18:36:02.516Z,93528
2018-03-04T18:38:30.655Z,93522
2018-03-04T18:40:58.769Z,93521
2018-03-04T18:43:27.645Z,93523
2018-03-04T18:45:55.753Z,93530
2018-03-04T18:48:23.888Z,93533
2018-03-04T18:50:52.389Z,93530
2018-03-04T18:53:20.517Z,93532
2018-03-04T18:55:48.622Z,93524
2018-03-04T18:58:16.760Z,93523
2018-03-04T19:00:45.752Z,93526
2018-03-04T19:03:13.873Z,93520
2018-03-04T19:05:43.003Z,93523
2018-03-04T19:08:11.104Z,93530
2018-03-04T19:10:39.210Z,93521
2018-03-04T19:13:07.327Z,93514
2018-03-04T19:15:41.699Z,93507
2018-03-04T19:18:09.828Z,93503
2018-03-04T19:20:38.036Z,93502
2018-03-04T19:23:10.161Z,93494
2018-03-04T19:25:38.544Z,93486
2018-03-04T19:28:06.682Z,93497
2018-03-04T19:30:36.336Z,93491
2018-03-04T19:33:04.486Z,93496
2018-03-04T19:35:32.608Z,93492
2018-03-04T19:38:00.726Z,93487
2018-03-04T19:40:28.855Z,93494
2018-03-04T19:43:17.286Z,93495
2018-03-04T19:45:45.380Z,93492
2018-03-04T19:48:13.572Z,93497
2018-03-04T19:50:41.691Z,93503
2018-03-04T19:53:10.195Z,93512
2018-03-04T19:55:38.339Z,93505
2018-03-04T19:58:08.099Z,93507
2018-03-04T20:00:37.513Z,93519
2018-03-04T20:03:05.638Z,93524
2018-03-04T20:05:34.528Z,93523
2018-03-04T20:08:02.693Z,93516
2018-03-04T20:10:30.816Z,93520
2018-03-04T20:12:58.925Z,93516
2018-03-04T20:15:27.050Z,93505
2018-03-04T20:17:55.945Z,93516
2018-03-04T20:20:24.856Z,93519
2018-03-04T20:22:53.090Z,93517
2018-03-04T20:25:21.285Z,93526
2018-03-04T20:27:49.409Z,93520
2018-03-04T20:30:17.562Z,93520
2018-03-04T20:32:45.673Z,93525
2018-03-04T20:35:28.598Z,93530
2018-03-04T20:37:59.310Z,93522
2018-03-04T20:40:27.455Z,93535
2018-03-04T20:42:55.943Z,93523
2018-03-04T20:45:24.062Z,93526
2018-03-04T20:47:52.176Z,93530
2018-03-04T20:50:20.357Z,93526
2018-03-04T20:52:48.528Z,93522
2018-03-04T20:55:16.682Z,93521
2018-03-04T20:57:44.806Z,93530
2018-03-04T21:00:12.926Z,93519
2018-03-04T21:02:41.064Z,93521
2018-03-04T21:05:09.171Z,93529
2018-03-04T21:07:37.359Z,93512
2018-03-04T21:10:06.349Z,93520
2018-03-04T21:12:34.504Z,93508
2018-03-04T21:15:02.697Z,93512
2018-03-04T21:17:30.813Z,93515
2018-03-04T21:19:58.933Z,93506
2018-03-04T21:22:27.070Z,93503
2018-03-04T21:24:55.192Z,93510
2018-03-04T21:27:23.441Z,93509
2018-03-04T21:29:52.352Z,93505
2018-03-04T21:32:21.255Z,93509
2018-03-04T21:34:49.365Z,93509
2018-03-04T21:37:17.461Z,93510
2018-03-04T21:39:45.606Z,93502
2018-03-04T21:42:13.824Z,93512
2018-03-04T21:44:42.016Z,93509
2018-03-04T21:47:10.457Z,93517
2018-03-04T21:49:38.637Z,93508
2018-03-04T21:52:07.449Z,93508
2018-03-04T21:54:35.621Z,93502
2018-03-04T21:57:03.738Z,93506
2018-03-04T21:59:31.845Z,93506
2018-03-04T22:02:00.250Z,93507
2018-03-04T22:04:28.366Z,93505
2018-03-04T22:06:57.596Z,93506
2018-03-04T22:09:25.695Z,93515
2018-03-04T22:11:55.504Z,93513
2018-03-04T22:14:23.681Z,93513
2018-03-04T22:29:47.865Z,93532
2018-03-04T22:32:16.956Z,93529
2018-03-04T22:34:45.086Z,93526
2018-03-04T22:37:13.342Z,93536
2018-03-04T22:39:41.466Z,93538
2018-03-04T22:42:09.581Z,93536
2018-03-04T22:44:38.382Z,93548
2018-03-04T22:47:06.721Z,93554
2018-03-04T22:49:34.852Z,93558
2018-03-04T22:52:03.636Z,93559
2018-03-04T22:54:31.757Z,93561
2018-03-04T22:57:00.444Z,93575
2018-03-04T22:59:28.619Z,93584
2018-03-04T23:02:01.074Z,93590
2018-03-04T23:04:29.237Z,93601
2018-03-04T23:06:57.365Z,93605
2018-03-04T23:25:31.256Z,93648
2018-03-04T23:27:59.866Z,93635
2018-03-04T23:30:27.992Z,93631
2018-03-04T23:32:56.110Z,93639
2018-03-04T23:48:14.342Z,93654
2018-03-04T23:50:42.644Z,93653
2018-03-04T23:53:10.852Z,93649
2018-03-04T23:55:39.106Z,93639
2018-03-04T23:58:07.679Z,93650
